createdAt,value
2022-10-06T00:00:23.920Z,14.11
2022-10-06T00:03:09.009Z,14.11
2022-10-06T00:05:59.358Z,14.09
2022-10-06T00:08:45.493Z,14.10
2022-10-06T00:11:30.941Z,14.11
2022-10-06T00:14:15.809Z,14.10
2022-10-06T00:17:00.825Z,14.09
2022-10-06T00:19:45.782Z,14.08
2022-10-06T00:22:37.598Z,14.07
2022-10-06T00:25:24.892Z,14.07
2022-10-06T00:28:10.173Z,14.06
2022-10-06T00:30:55.539Z,14.05
2022-10-06T00:33:41.116Z,14.04
2022-10-06T00:36:26.227Z,14.05
2022-10-06T00:39:11.164Z,14.05
2022-10-06T00:41:55.969Z,14.05
2022-10-06T00:44:41.790Z,14.04
2022-10-06T00:47:30.787Z,14.04
2022-10-06T00:50:16.459Z,14.05
2022-10-06T00:53:02.718Z,14.05
2022-10-06T00:55:47.622Z,14.04
2022-10-06T00:58:32.839Z,14.04
2022-10-06T01:01:18.026Z,14.03
2022-10-06T01:04:09.270Z,14.03
2022-10-06T01:06:57.691Z,14.04
2022-10-06T01:09:43.090Z,14.04
2022-10-06T01:12:29.790Z,14.06
2022-10-06T01:15:16.427Z,14.07
2022-10-06T01:18:05.893Z,14.07
2022-10-06T01:20:59.890Z,14.09
2022-10-06T01:23:45.181Z,14.09
2022-10-06T01:26:33.728Z,14.08
2022-10-06T01:29:20.063Z,14.08
2022-10-06T01:32:05.587Z,14.07
2022-10-06T01:34:50.918Z,14.07
2022-10-06T01:37:36.511Z,14.04
2022-10-06T01:40:22.703Z,14.03
2022-10-06T01:43:07.982Z,14.01
2022-10-06T01:45:57.275Z,13.99
2022-10-06T01:48:42.383Z,13.97
2022-10-06T01:51:28.175Z,13.96
2022-10-06T01:54:14.696Z,13.94
2022-10-06T01:56:59.893Z,13.90
2022-10-06T01:59:45.756Z,13.89
2022-10-06T02:02:31.412Z,13.86
2022-10-06T02:05:17.102Z,13.84
2022-10-06T02:08:05.883Z,13.82
2022-10-06T02:10:53.097Z,13.79
2022-10-06T02:13:41.854Z,13.78
2022-10-06T02:16:30.305Z,13.76
2022-10-06T02:19:15.600Z,13.74
2022-10-06T02:22:00.447Z,13.72
2022-10-06T02:24:45.814Z,13.70
2022-10-06T02:27:31.227Z,13.68
2022-10-06T02:30:17.155Z,13.67
2022-10-06T02:33:04.277Z,13.65
2022-10-06T02:35:54.775Z,13.63
2022-10-06T02:38:40.999Z,13.61
2022-10-06T02:41:27.243Z,13.60
2022-10-06T02:44:12.571Z,13.60
2022-10-06T02:47:00.252Z,13.48
2022-10-06T02:49:45.995Z,13.56
2022-10-06T02:52:36.214Z,13.56
2022-10-06T02:55:22.577Z,13.55
2022-10-06T02:58:07.430Z,13.54
2022-10-06T03:00:52.825Z,13.52
2022-10-06T03:03:38.057Z,13.51
2022-10-06T03:06:26.030Z,13.50
2022-10-06T03:09:21.311Z,13.49
2022-10-06T03:12:06.907Z,13.48
2022-10-06T03:14:56.272Z,13.47
2022-10-06T03:17:44.639Z,13.47
2022-10-06T03:20:31.268Z,13.46
2022-10-06T03:23:16.525Z,13.48
2022-10-06T03:26:01.996Z,13.46
2022-10-06T03:28:48.484Z,13.48
2022-10-06T03:31:33.869Z,13.47
2022-10-06T03:34:20.262Z,13.46
2022-10-06T03:37:05.640Z,13.45
2022-10-06T03:39:50.668Z,13.45
2022-10-06T03:42:36.502Z,13.44
2022-10-06T03:45:22.986Z,13.44
2022-10-06T03:48:08.356Z,13.42
2022-10-06T03:50:55.560Z,13.42
2022-10-06T03:53:44.541Z,13.39
2022-10-06T03:56:35.126Z,13.39
2022-10-06T03:59:20.888Z,13.39
2022-10-06T04:02:07.127Z,13.37
2022-10-06T04:04:55.338Z,13.35
2022-10-06T04:07:42.318Z,13.33
2022-10-06T04:10:27.427Z,13.33
2022-10-06T04:13:12.660Z,13.30
2022-10-06T04:15:58.093Z,13.29
2022-10-06T04:18:45.151Z,13.25
2022-10-06T04:21:32.463Z,13.21
2022-10-06T04:24:17.828Z,13.19
2022-10-06T04:27:05.151Z,13.15
2022-10-06T04:29:50.626Z,13.13
2022-10-06T04:32:35.684Z,13.11
2022-10-06T04:35:21.632Z,13.07
2022-10-06T04:38:07.007Z,13.05
2022-10-06T04:40:52.247Z,13.03
2022-10-06T04:43:37.856Z,13.00
2022-10-06T04:46:41.991Z,12.99
2022-10-06T04:49:28.495Z,12.97
2022-10-06T04:52:14.709Z,12.95
2022-10-06T04:55:00.549Z,12.94
2022-10-06T04:57:46.425Z,12.92
2022-10-06T05:00:31.870Z,12.91
2022-10-06T05:03:17.378Z,12.88
2022-10-06T05:06:18.253Z,12.86
2022-10-06T05:09:09.200Z,12.86
2022-10-06T05:11:55.563Z,12.85
2022-10-06T05:14:40.891Z,12.82
2022-10-06T05:17:26.544Z,12.82
2022-10-06T05:20:12.328Z,12.81
2022-10-06T05:22:57.710Z,12.82
2022-10-06T05:25:50.823Z,12.79
2022-10-06T05:28:36.634Z,12.80
2022-10-06T05:31:24.969Z,12.78
2022-10-06T05:34:10.072Z,12.77
2022-10-06T05:36:55.300Z,12.77
2022-10-06T05:39:40.613Z,12.78
2022-10-06T05:42:29.506Z,12.78
2022-10-06T05:45:15.279Z,12.78
2022-10-06T05:48:01.048Z,12.79
2022-10-06T05:50:46.312Z,12.80
2022-10-06T05:53:33.691Z,12.82
2022-10-06T05:56:24.792Z,12.81
2022-10-06T05:59:09.980Z,12.84
2022-10-06T06:01:55.630Z,12.87
2022-10-06T06:04:49.593Z,12.91
2022-10-06T06:07:35.335Z,12.94
2022-10-06T06:10:20.461Z,12.99
2022-10-06T06:13:05.455Z,13.02
2022-10-06T06:15:59.625Z,13.07
2022-10-06T06:18:45.716Z,13.13
2022-10-06T06:21:32.801Z,13.18
2022-10-06T06:24:17.782Z,13.25
2022-10-06T06:27:02.658Z,13.32
2022-10-06T06:29:47.965Z,13.40
2022-10-06T06:32:33.604Z,13.46
2022-10-06T06:35:19.077Z,13.53
2022-10-06T06:38:03.947Z,13.62
2022-10-06T06:40:49.002Z,13.69
2022-10-06T06:43:34.680Z,13.78
2022-10-06T06:46:42.748Z,13.87
2022-10-06T06:49:31.545Z,13.95
2022-10-06T06:52:21.433Z,14.04
2022-10-06T06:55:06.676Z,14.12
2022-10-06T06:57:52.167Z,14.17
2022-10-06T07:00:37.674Z,14.25
2022-10-06T07:03:55.598Z,14.33
2022-10-06T07:06:30.605Z,14.42
2022-10-06T07:09:17.449Z,14.50
2022-10-06T07:12:03.575Z,14.61
2022-10-06T07:14:48.940Z,14.71
2022-10-06T07:17:34.186Z,14.83
2022-10-06T07:20:19.617Z,14.96
2022-10-06T07:23:05.250Z,15.07
2022-10-06T07:25:51.230Z,15.19
2022-10-06T07:28:36.395Z,15.31
2022-10-06T07:31:21.845Z,15.42
2022-10-06T07:34:06.807Z,15.55
2022-10-06T07:36:52.044Z,15.69
2022-10-06T07:39:37.157Z,15.81
2022-10-06T07:42:22.514Z,15.94
2022-10-06T07:45:08.234Z,16.07
2022-10-06T07:48:00.249Z,16.18
2022-10-06T07:50:50.441Z,16.31
2022-10-06T07:53:39.803Z,16.44
2022-10-06T07:56:36.422Z,16.58
2022-10-06T07:59:22.161Z,16.72
2022-10-06T08:02:07.229Z,16.82
2022-10-06T08:04:52.920Z,16.93
2022-10-06T08:07:38.143Z,17.05
2022-10-06T08:10:23.263Z,17.17
2022-10-06T08:13:09.450Z,17.28
2022-10-06T08:15:54.641Z,17.36
2022-10-06T08:18:46.503Z,17.44
2022-10-06T08:21:33.353Z,17.54
2022-10-06T08:24:18.288Z,17.62
2022-10-06T08:27:03.781Z,17.71
2022-10-06T08:29:49.054Z,17.76
2022-10-06T08:32:34.552Z,17.87
2022-10-06T08:35:19.888Z,17.93
2022-10-06T08:38:05.859Z,18.03
2022-10-06T08:40:51.342Z,18.10
2022-10-06T08:43:36.749Z,18.18
2022-10-06T08:46:25.019Z,18.25
2022-10-06T08:49:18.917Z,18.31
2022-10-06T08:52:40.070Z,18.36
2022-10-06T08:55:42.045Z,18.44
2022-10-06T08:58:46.002Z,18.55
2022-10-06T09:01:46.757Z,18.62
2022-10-06T09:04:32.542Z,18.69
2022-10-06T09:07:31.579Z,18.76
2022-10-06T09:10:41.196Z,18.80
2022-10-06T09:13:35.963Z,18.89
2022-10-06T09:16:30.701Z,18.96
2022-10-06T09:19:24.832Z,19.01
2022-10-06T09:22:20.381Z,19.13
2022-10-06T09:25:26.206Z,19.13
2022-10-06T09:28:15.429Z,19.26
2022-10-06T09:31:03.915Z,19.39
2022-10-06T09:33:52.144Z,19.50
2022-10-06T09:37:00.905Z,19.43
2022-10-06T09:39:52.098Z,19.57
2022-10-06T09:42:37.151Z,19.58
2022-10-06T09:45:26.274Z,19.60
2022-10-06T09:48:22.200Z,19.63
2022-10-06T09:51:15.193Z,19.64
2022-10-06T09:54:18.352Z,19.69
2022-10-06T09:57:28.753Z,19.75
2022-10-06T10:00:35.195Z,19.81
2022-10-06T10:03:21.580Z,19.87
2022-10-06T10:06:07.013Z,19.92
2022-10-06T10:08:52.107Z,19.98
2022-10-06T10:11:37.446Z,20.03
2022-10-06T10:14:22.715Z,20.08
2022-10-06T10:17:16.809Z,20.11
2022-10-06T10:20:06.435Z,20.17
2022-10-06T10:22:52.931Z,20.24
2022-10-06T10:25:58.434Z,20.27
2022-10-06T10:29:05.343Z,20.29
2022-10-06T10:32:17.031Z,20.33
2022-10-06T10:35:15.237Z,20.38
2022-10-06T10:38:13.724Z,20.45
2022-10-06T10:41:07.360Z,20.51
2022-10-06T10:44:29.265Z,20.54
2022-10-06T10:47:37.692Z,20.66
2022-10-06T10:50:28.914Z,20.72
2022-10-06T10:56:25.773Z,20.84
2022-10-06T10:59:30.451Z,20.88
2022-10-06T11:02:20.219Z,20.91
2022-10-06T11:05:12.669Z,20.92
2022-10-06T11:08:30.431Z,20.91
2022-10-06T11:11:43.156Z,20.89
2022-10-06T11:14:50.348Z,20.94
2022-10-06T11:17:41.772Z,20.98
2022-10-06T11:20:39.052Z,21.07
2022-10-06T11:23:31.140Z,21.11
2022-10-06T11:26:32.613Z,21.17
2022-10-06T11:29:36.441Z,21.21
2022-10-06T11:32:30.428Z,21.26
2022-10-06T11:35:25.019Z,21.29
2022-10-06T11:38:15.686Z,21.31
2022-10-06T11:41:10.300Z,21.30
2022-10-06T11:44:06.498Z,21.26
2022-10-06T11:46:56.279Z,21.20
2022-10-06T11:49:44.277Z,21.17
2022-10-06T11:52:29.097Z,21.15
2022-10-06T11:55:18.138Z,21.18
2022-10-06T11:58:29.915Z,21.25
2022-10-06T12:01:34.577Z,21.33
2022-10-06T12:04:24.377Z,21.43
2022-10-06T12:07:10.351Z,21.53
2022-10-06T12:10:27.427Z,21.62
2022-10-06T12:20:18.172Z,21.79
2022-10-06T12:23:09.023Z,21.83
2022-10-06T12:25:54.440Z,21.84
2022-10-06T12:28:47.510Z,21.85
2022-10-06T12:31:52.310Z,21.85
2022-10-06T12:34:40.340Z,21.90
2022-10-06T12:37:34.019Z,21.84
2022-10-06T12:40:40.796Z,21.93
2022-10-06T12:43:28.474Z,21.95
2022-10-06T12:46:22.687Z,21.90
2022-10-06T12:49:42.889Z,22.03
2022-10-06T12:52:36.778Z,22.13
2022-10-06T12:55:38.564Z,22.19
2022-10-06T12:58:28.804Z,22.26
2022-10-06T13:01:13.819Z,22.38
2022-10-06T13:03:59.086Z,22.46
2022-10-06T13:06:49.938Z,22.55
2022-10-06T13:09:35.027Z,22.65
2022-10-06T13:12:32.611Z,22.76
2022-10-06T13:15:27.423Z,22.85
2022-10-06T13:18:17.590Z,22.92
2022-10-06T13:31:15.093Z,23.12
2022-10-06T13:33:43.822Z,23.13
2022-10-06T13:36:12.045Z,23.10
2022-10-06T13:38:39.767Z,23.07
2022-10-06T13:41:06.327Z,22.98
2022-10-06T13:43:39.945Z,22.89
2022-10-06T13:46:14.930Z,22.76
2022-10-06T13:48:57.945Z,22.62
2022-10-06T13:51:28.400Z,22.54
2022-10-06T13:53:55.978Z,22.47
2022-10-06T13:56:40.084Z,22.37
2022-10-06T13:59:38.155Z,22.37
2022-10-06T14:02:23.333Z,22.39
2022-10-06T14:05:27.418Z,22.36
2022-10-06T14:07:57.829Z,22.35
2022-10-06T14:10:29.365Z,22.34
2022-10-06T14:12:56.168Z,22.31
2022-10-06T14:15:25.785Z,22.25
2022-10-06T14:17:58.888Z,22.23
2022-10-06T14:20:40.960Z,22.20
2022-10-06T14:23:45.319Z,22.13
2022-10-06T14:26:13.372Z,22.10
2022-10-06T14:28:40.909Z,21.95
2022-10-06T14:31:11.975Z,22.02
2022-10-06T14:33:40.755Z,22.03
2022-10-06T14:36:15.114Z,21.99
2022-10-06T14:38:41.624Z,21.99
2022-10-06T14:41:08.244Z,22.00
2022-10-06T14:43:34.884Z,22.02
2022-10-06T14:46:04.026Z,22.03
2022-10-06T14:48:32.743Z,22.02
2022-10-06T14:51:02.306Z,22.05
2022-10-06T14:53:28.889Z,22.05
2022-10-06T14:56:04.942Z,22.02
2022-10-06T14:58:31.695Z,21.94
2022-10-06T15:01:06.430Z,21.92
2022-10-06T15:03:34.094Z,21.88
2022-10-06T15:06:05.374Z,21.84
2022-10-06T15:08:31.982Z,21.79
2022-10-06T15:10:58.527Z,21.76
2022-10-06T15:13:25.590Z,21.76
2022-10-06T15:15:58.009Z,21.71
2022-10-06T15:18:24.633Z,21.70
2022-10-06T15:20:51.111Z,21.69
2022-10-06T15:23:17.639Z,21.68
2022-10-06T15:25:51.672Z,21.66
2022-10-06T15:28:21.258Z,21.63
2022-10-06T15:30:50.145Z,21.60
2022-10-06T15:33:16.706Z,21.57
2022-10-06T15:35:58.062Z,21.56
2022-10-06T15:38:24.602Z,21.52
2022-10-06T15:41:04.240Z,21.48
2022-10-06T15:43:31.948Z,21.41
2022-10-06T15:45:58.436Z,21.34
2022-10-06T15:48:24.928Z,21.27
2022-10-06T15:50:51.438Z,21.18
2022-10-06T15:53:17.953Z,21.10
2022-10-06T15:55:44.461Z,21.02
2022-10-06T15:58:10.935Z,20.94
2022-10-06T16:00:37.460Z,20.87
2022-10-06T16:03:04.027Z,20.81
2022-10-06T16:05:30.631Z,20.74
2022-10-06T16:07:57.152Z,20.69
2022-10-06T16:10:23.608Z,20.60
2022-10-06T16:12:50.075Z,20.56
2022-10-06T16:15:16.615Z,20.48
2022-10-06T16:17:43.133Z,20.42
2022-10-06T16:20:09.906Z,20.38
2022-10-06T16:22:36.680Z,20.33
2022-10-06T16:25:03.510Z,20.25
2022-10-06T16:27:33.348Z,20.21
2022-10-06T16:30:00.221Z,20.13
2022-10-06T16:32:26.749Z,20.05
2022-10-06T16:34:53.387Z,20.00
2022-10-06T16:37:19.821Z,19.91
2022-10-06T16:39:46.269Z,19.83
2022-10-06T16:42:12.813Z,19.73
2022-10-06T16:44:39.297Z,19.63
2022-10-06T16:47:05.946Z,19.54
2022-10-06T16:49:32.478Z,19.45
2022-10-06T16:51:58.925Z,19.35
2022-10-06T16:54:25.760Z,19.26
2022-10-06T16:56:52.404Z,19.17
2022-10-06T16:59:20.643Z,19.09
2022-10-06T17:01:48.093Z,18.98
2022-10-06T17:04:19.919Z,18.89
2022-10-06T17:06:49.159Z,18.80
2022-10-06T17:09:20.896Z,18.72
2022-10-06T17:11:52.648Z,18.64
2022-10-06T17:14:20.052Z,18.56
2022-10-06T17:16:48.261Z,18.47
2022-10-06T17:19:16.538Z,18.40
2022-10-06T17:21:46.605Z,18.33
2022-10-06T17:24:14.990Z,18.26
2022-10-06T17:26:43.852Z,18.17
2022-10-06T17:29:17.002Z,18.11
2022-10-06T17:31:43.701Z,18.06
2022-10-06T17:34:14.318Z,17.99
2022-10-06T17:36:44.900Z,17.92
2022-10-06T17:39:12.064Z,17.85
2022-10-06T17:41:41.466Z,17.76
2022-10-06T17:44:10.718Z,17.70
2022-10-06T17:46:40.473Z,17.63
2022-10-06T17:49:09.196Z,17.56
2022-10-06T17:51:38.252Z,17.48
2022-10-06T17:54:07.460Z,17.41
2022-10-06T17:56:34.861Z,17.36
2022-10-06T17:59:07.059Z,17.29
2022-10-06T18:01:35.363Z,17.23
2022-10-06T18:04:04.276Z,17.16
2022-10-06T18:06:33.596Z,17.10
2022-10-06T18:09:00.691Z,17.03
2022-10-06T18:11:28.808Z,16.97
2022-10-06T18:13:55.525Z,16.82
2022-10-06T18:16:23.957Z,16.85
2022-10-06T18:18:52.440Z,16.82
2022-10-06T18:21:21.450Z,16.78
2022-10-06T18:23:48.436Z,16.74
2022-10-06T18:26:16.866Z,16.70
2022-10-06T18:28:45.566Z,16.65
2022-10-06T18:31:13.643Z,16.60
2022-10-06T18:36:26.912Z,16.48
2022-10-06T18:38:53.553Z,16.44
2022-10-06T18:41:20.223Z,16.38
2022-10-06T18:43:46.852Z,16.32
2022-10-06T18:46:15.690Z,16.27
2022-10-06T18:48:42.303Z,16.22
2022-10-06T18:51:08.910Z,16.19
2022-10-06T18:53:35.747Z,16.14
2022-10-06T18:56:02.211Z,16.09
2022-10-06T18:58:28.668Z,16.07
2022-10-06T19:00:55.423Z,16.03
2022-10-06T19:03:22.017Z,16.01
2022-10-06T19:05:52.641Z,15.96
2022-10-06T19:08:19.103Z,15.91
2022-10-06T19:10:45.606Z,15.89
2022-10-06T19:13:12.095Z,15.85
2022-10-06T19:15:38.754Z,15.82
2022-10-06T19:18:05.413Z,15.78
2022-10-06T19:20:31.989Z,15.74
2022-10-06T19:22:58.513Z,15.70
2022-10-06T19:25:24.992Z,15.66
2022-10-06T19:27:51.492Z,15.62
2022-10-06T19:30:17.995Z,15.58
2022-10-06T19:32:44.463Z,15.54
2022-10-06T19:35:11.359Z,15.50
2022-10-06T19:37:38.623Z,15.46
2022-10-06T19:40:05.270Z,15.42
2022-10-06T19:42:31.899Z,15.40
2022-10-06T19:44:58.806Z,15.35
2022-10-06T19:47:26.060Z,15.32
2022-10-06T19:49:53.997Z,15.28
2022-10-06T19:52:22.562Z,15.25
2022-10-06T19:54:49.128Z,15.21
2022-10-06T19:57:15.834Z,15.20
2022-10-06T19:59:42.435Z,15.16
2022-10-06T20:02:10.720Z,15.14
2022-10-06T20:04:37.849Z,15.10
2022-10-06T20:07:04.478Z,15.08
2022-10-06T20:09:32.099Z,15.04
2022-10-06T20:11:59.410Z,15.01
2022-10-06T20:14:26.325Z,14.99
2022-10-06T20:16:54.320Z,14.96
2022-10-06T20:19:21.459Z,14.93
2022-10-06T20:21:48.573Z,14.93
2022-10-06T20:24:18.042Z,14.91
2022-10-06T20:26:45.642Z,14.88
2022-10-06T20:29:13.458Z,14.87
2022-10-06T20:31:43.209Z,14.86
2022-10-06T20:34:12.527Z,14.87
2022-10-06T20:36:39.503Z,14.90
2022-10-06T20:39:07.572Z,14.88
2022-10-06T20:41:34.123Z,14.90
2022-10-06T20:44:01.916Z,14.91
2022-10-06T20:46:31.497Z,14.90
2022-10-06T20:49:03.763Z,14.90
2022-10-06T20:51:31.593Z,14.92
2022-10-06T20:53:59.168Z,14.90
2022-10-06T20:56:26.088Z,14.88
2022-10-06T20:58:53.541Z,14.88
2022-10-06T21:01:21.660Z,14.86
2022-10-06T21:03:48.991Z,14.74
2022-10-06T21:06:17.409Z,14.80
2022-10-06T21:08:45.503Z,14.79
2022-10-06T21:11:13.494Z,14.66
2022-10-06T21:13:40.561Z,14.71
2022-10-06T21:16:07.262Z,14.67
2022-10-06T21:18:34.102Z,14.63
2022-10-06T21:21:05.447Z,14.58
2022-10-06T21:23:38.101Z,14.54
2022-10-06T21:26:06.413Z,14.50
2022-10-06T21:28:33.869Z,14.36
2022-10-06T21:31:05.255Z,14.40
2022-10-06T21:33:31.944Z,14.38
2022-10-06T21:36:02.873Z,14.36
2022-10-06T21:38:30.381Z,14.31
2022-10-06T21:41:01.829Z,14.24
2022-10-06T21:43:28.338Z,14.23
2022-10-06T21:46:17.166Z,14.21
2022-10-06T21:48:41.265Z,14.18
2022-10-06T21:51:07.799Z,14.17
2022-10-06T21:53:34.363Z,14.16
2022-10-06T21:56:00.858Z,14.15
2022-10-06T21:58:27.532Z,14.13
2022-10-06T22:00:58.070Z,14.12
2022-10-06T22:03:24.755Z,14.10
2022-10-06T22:05:51.199Z,14.08
2022-10-06T22:08:17.633Z,14.07
2022-10-06T22:10:44.196Z,14.05
2022-10-06T22:13:10.755Z,14.03
2022-10-06T22:15:37.312Z,14.01
2022-10-06T22:18:04.019Z,14.02
2022-10-06T22:20:30.479Z,14.03
2022-10-06T22:23:00.265Z,14.06
2022-10-06T22:25:29.077Z,14.07
2022-10-06T22:27:55.500Z,14.10
2022-10-06T22:30:21.976Z,14.13
2022-10-06T22:32:48.449Z,14.14
2022-10-06T22:35:15.027Z,14.15
2022-10-06T22:37:41.751Z,14.18
2022-10-06T22:40:09.452Z,14.19
2022-10-06T22:42:36.040Z,14.20
2022-10-06T22:45:02.540Z,14.21
2022-10-06T22:47:28.977Z,14.23
2022-10-06T22:49:55.506Z,14.24
2022-10-06T22:52:21.944Z,14.26
2022-10-06T22:54:48.472Z,14.28
2022-10-06T22:57:14.989Z,14.29
2022-10-06T22:59:41.443Z,14.31
2022-10-06T23:02:07.940Z,14.34
2022-10-06T23:04:34.481Z,14.37
2022-10-06T23:07:00.916Z,14.39
2022-10-06T23:09:27.625Z,14.42
2022-10-06T23:11:54.064Z,14.44
2022-10-06T23:14:20.575Z,14.46
2022-10-06T23:16:47.355Z,14.48
2022-10-06T23:19:14.040Z,14.49
2022-10-06T23:21:40.590Z,14.51
2022-10-06T23:24:07.223Z,14.51
2022-10-06T23:26:33.688Z,14.52
2022-10-06T23:29:01.392Z,14.54
2022-10-06T23:31:28.920Z,14.54
2022-10-06T23:33:55.899Z,14.57
2022-10-06T23:36:22.791Z,14.58
2022-10-06T23:38:49.312Z,14.60
2022-10-06T23:41:16.363Z,14.62
2022-10-06T23:43:43.418Z,14.65
2022-10-06T23:46:10.399Z,14.68
2022-10-06T23:48:36.835Z,14.70
2022-10-06T23:51:12.242Z,14.73
2022-10-06T23:53:39.436Z,14.75
2022-10-06T23:56:06.878Z,14.79
2022-10-06T23:58:33.837Z,14.82
